createdAt,value
2022-10-28T00:01:36.643Z,79012.50
2022-10-28T00:04:05.528Z,79006.03
2022-10-28T00:06:36.792Z,79007.19
2022-10-28T00:09:09.660Z,79026.06
2022-10-28T00:11:41.126Z,79017.00
2022-10-28T00:14:11.912Z,79029.69
2022-10-28T00:16:41.253Z,79002.47
2022-10-28T00:19:12.928Z,79033.19
2022-10-28T00:21:44.590Z,79011.91
2022-10-28T00:24:14.937Z,79015.53
2022-10-28T00:26:45.097Z,79014.13
2022-10-28T00:29:18.074Z,79035.50
2022-10-28T00:31:48.014Z,79008.69
2022-10-28T00:34:19.576Z,79023.97
2022-10-28T00:36:49.329Z,79031.53
2022-10-28T00:39:23.223Z,79023.41
2022-10-28T00:41:59.827Z,79027.72
2022-10-28T00:45:00.664Z,79041.66
2022-10-28T00:47:31.951Z,79034.22
2022-10-28T00:50:22.067Z,79028.50
2022-10-28T00:52:57.405Z,79009.19
2022-10-28T00:55:27.971Z,79028.75
2022-10-28T00:57:58.249Z,79029.09
2022-10-28T01:00:28.243Z,79015.41
2022-10-28T01:02:57.596Z,79002.22
2022-10-28T01:05:30.623Z,79027.47
2022-10-28T01:08:04.204Z,79026.22
2022-10-28T01:10:54.889Z,79035.06
2022-10-28T01:13:53.937Z,79034.66
2022-10-28T01:16:44.591Z,79029.03
2022-10-28T01:20:06.857Z,79030.72
2022-10-28T01:22:43.969Z,79022.25
2022-10-28T01:25:24.733Z,79034.25
2022-10-28T01:28:26.889Z,79032.34
2022-10-28T01:31:20.229Z,79027.75
2022-10-28T01:34:11.089Z,79034.78
2022-10-28T01:36:52.430Z,79035.78
2022-10-28T01:39:50.221Z,79023.53
2022-10-28T01:42:42.972Z,79034.81
2022-10-28T01:45:12.007Z,79044.91
2022-10-28T01:48:06.390Z,79050.34
2022-10-28T01:51:04.224Z,79035.91
2022-10-28T01:53:37.161Z,79025.94
2022-10-28T01:56:12.969Z,79037.25
2022-10-28T01:58:44.142Z,79048.22
2022-10-28T02:01:14.704Z,79041.03
2022-10-28T02:03:43.469Z,79038.91
2022-10-28T02:06:24.165Z,79036.03
2022-10-28T02:09:26.402Z,79048.59
2022-10-28T02:11:55.449Z,79057.72
2022-10-28T02:14:53.040Z,79053.50
2022-10-28T02:17:33.270Z,79064.09
2022-10-28T02:20:09.262Z,79067.94
2022-10-28T02:23:02.062Z,79064.44
2022-10-28T02:25:38.586Z,79065.56
2022-10-28T02:30:53.590Z,79056.81
2022-10-28T02:33:31.537Z,79068.84
2022-10-28T02:36:15.914Z,79075.31
2022-10-28T02:38:52.198Z,79069.31
2022-10-28T02:41:46.104Z,79074.91
2022-10-28T02:44:22.950Z,79065.66
2022-10-28T02:46:53.545Z,79073.50
2022-10-28T02:49:24.007Z,79061.28
2022-10-28T02:51:58.679Z,79055.78
2022-10-28T02:54:39.235Z,79080.47
2022-10-28T02:57:26.510Z,79085.78
2022-10-28T03:00:00.547Z,79067.28
2022-10-28T03:02:30.028Z,79075.00
2022-10-28T03:04:59.590Z,79084.34
2022-10-28T03:07:28.253Z,79081.69
2022-10-28T03:09:57.467Z,79062.00
2022-10-28T03:12:26.047Z,79091.34
2022-10-28T03:14:55.047Z,79110.16
2022-10-28T03:17:23.722Z,79101.69
2022-10-28T03:19:52.631Z,79087.41
2022-10-28T03:22:21.285Z,79117.56
2022-10-28T03:24:50.274Z,79051.50
2022-10-28T03:27:19.164Z,79116.38
2022-10-28T03:29:48.153Z,79118.03
2022-10-28T03:32:16.770Z,79105.63
2022-10-28T03:34:45.585Z,79116.56
2022-10-28T03:37:15.266Z,79116.25
2022-10-28T03:39:44.077Z,79121.16
2022-10-28T03:42:12.774Z,79131.97
2022-10-28T03:44:41.677Z,79127.88
2022-10-28T03:47:10.315Z,79130.00
2022-10-28T03:49:39.262Z,79140.25
2022-10-28T03:52:08.075Z,79124.56
2022-10-28T03:54:37.412Z,79141.38
2022-10-28T03:57:06.102Z,79121.13
2022-10-28T03:59:35.058Z,79139.66
2022-10-28T04:02:03.815Z,79122.59
2022-10-28T04:04:32.666Z,79152.25
2022-10-28T04:07:01.409Z,79151.59
2022-10-28T04:09:30.465Z,79146.91
2022-10-28T04:11:59.178Z,79145.22
2022-10-28T04:14:28.043Z,79150.16
2022-10-28T04:16:57.040Z,79122.78
2022-10-28T04:19:25.978Z,79128.56
2022-10-28T04:21:54.657Z,79146.81
2022-10-28T04:24:23.453Z,79122.25
2022-10-28T04:26:52.386Z,79147.69
2022-10-28T04:29:21.162Z,79146.09
2022-10-28T04:31:52.197Z,79163.13
2022-10-28T04:34:21.478Z,79152.59
2022-10-28T04:36:50.187Z,79157.31
2022-10-28T04:39:19.078Z,79154.63
2022-10-28T04:41:48.335Z,79147.22
2022-10-28T04:44:17.949Z,79153.72
2022-10-28T04:46:46.653Z,79123.81
2022-10-28T04:49:15.725Z,79135.41
2022-10-28T04:51:44.362Z,79135.06
2022-10-28T04:54:13.347Z,79165.13
2022-10-28T04:56:42.189Z,79168.06
2022-10-28T04:59:10.924Z,79159.75
2022-10-28T05:01:39.720Z,79123.47
2022-10-28T05:04:09.055Z,79155.53
2022-10-28T05:06:37.584Z,79160.94
2022-10-28T05:09:06.538Z,79167.66
2022-10-28T05:11:35.241Z,79158.97
2022-10-28T05:14:04.188Z,79164.91
2022-10-28T05:16:32.910Z,79164.16
2022-10-28T05:19:01.906Z,79132.53
2022-10-28T05:21:30.540Z,79096.03
2022-10-28T05:23:59.546Z,79170.25
2022-10-28T05:26:28.266Z,79163.34
2022-10-28T05:28:57.052Z,79150.53
2022-10-28T05:31:25.792Z,79161.41
2022-10-28T05:33:54.908Z,79163.22
2022-10-28T05:36:23.767Z,79136.84
2022-10-28T05:38:52.548Z,79147.69
2022-10-28T05:41:23.197Z,79142.53
2022-10-28T05:43:52.940Z,79119.41
2022-10-28T05:46:23.206Z,79144.94
2022-10-28T05:48:53.027Z,79144.47
2022-10-28T05:51:21.883Z,79153.72
2022-10-28T05:53:52.378Z,79127.66
2022-10-28T05:56:21.554Z,79155.88
2022-10-28T06:01:24.568Z,79134.19
2022-10-28T06:03:53.701Z,79150.06
2022-10-28T06:06:23.187Z,79142.63
2022-10-28T06:08:51.928Z,79127.00
2022-10-28T06:11:19.422Z,79138.09
2022-10-28T06:13:48.645Z,79130.13
2022-10-28T06:16:17.964Z,79123.97
2022-10-28T06:18:46.582Z,79140.34
2022-10-28T06:21:15.462Z,79110.38
2022-10-28T06:23:44.087Z,79137.50
2022-10-28T06:26:13.097Z,79134.94
2022-10-28T06:28:42.110Z,79103.44
2022-10-28T06:31:11.025Z,79121.19
2022-10-28T06:33:39.714Z,79126.69
2022-10-28T06:36:09.106Z,79120.09
2022-10-28T06:38:38.314Z,79127.00
2022-10-28T06:41:07.241Z,79119.28
2022-10-28T06:43:36.048Z,79111.63
2022-10-28T06:46:05.404Z,79129.97
2022-10-28T06:48:35.490Z,79117.97
2022-10-28T06:51:04.299Z,79120.31
2022-10-28T06:53:33.001Z,79119.91
2022-10-28T06:56:02.084Z,79115.38
2022-10-28T06:58:30.775Z,79111.09
2022-10-28T07:01:05.737Z,79090.78
2022-10-28T07:03:34.824Z,79108.22
2022-10-28T07:06:03.687Z,79108.19
2022-10-28T07:08:33.677Z,79085.31
2022-10-28T07:11:03.561Z,79097.16
2022-10-28T07:13:32.289Z,79105.06
2022-10-28T07:16:02.594Z,79082.56
2022-10-28T07:18:32.610Z,79097.31
2022-10-28T07:21:02.629Z,79093.00
2022-10-28T07:23:35.432Z,79085.44
2022-10-28T07:26:04.765Z,79070.84
2022-10-28T07:28:33.788Z,79074.13
2022-10-28T07:31:04.338Z,79069.09
2022-10-28T07:33:33.483Z,79078.94
2022-10-28T07:36:05.688Z,79072.56
2022-10-28T07:38:35.469Z,79054.59
2022-10-28T07:41:09.586Z,79061.63
2022-10-28T07:43:39.983Z,79073.34
2022-10-28T07:46:09.702Z,79063.09
2022-10-28T07:48:39.616Z,79051.50
2022-10-28T07:51:11.678Z,79065.13
2022-10-28T07:53:41.515Z,79057.72
2022-10-28T07:56:15.891Z,79056.56
2022-10-28T07:58:46.908Z,79035.47
2022-10-28T08:01:18.834Z,79056.63
2022-10-28T08:03:50.891Z,79038.44
2022-10-28T08:06:21.878Z,79045.91
2022-10-28T08:08:55.216Z,79044.78
2022-10-28T08:11:25.484Z,79042.53
2022-10-28T08:13:56.547Z,79038.97
2022-10-28T08:16:26.318Z,79033.78
2022-10-28T08:18:55.366Z,79023.00
2022-10-28T08:21:25.477Z,79038.13
2022-10-28T08:23:56.043Z,79001.00
2022-10-28T08:26:24.872Z,78995.78
2022-10-28T08:28:54.321Z,79020.97
2022-10-28T08:31:23.155Z,79018.22
2022-10-28T08:33:51.904Z,79019.34
2022-10-28T08:36:20.748Z,79021.38
2022-10-28T08:38:49.413Z,79001.94
2022-10-28T08:41:28.884Z,79021.38
2022-10-28T08:44:24.684Z,79019.16
2022-10-28T08:47:14.699Z,79018.91
2022-10-28T08:49:48.557Z,79004.41
2022-10-28T08:52:40.789Z,79017.63
2022-10-28T08:55:34.131Z,79013.47
2022-10-28T08:58:28.014Z,79012.31
2022-10-28T09:01:00.797Z,78998.03
2022-10-28T09:03:45.921Z,79016.88
2022-10-28T09:06:14.816Z,79011.69
2022-10-28T09:08:46.606Z,79002.25
2022-10-28T09:11:36.952Z,79011.69
2022-10-28T09:14:35.319Z,79004.59
2022-10-28T09:19:54.840Z,78989.00
2022-10-28T09:22:32.781Z,79007.97
2022-10-28T09:25:12.454Z,79009.72
2022-10-28T09:28:18.113Z,78991.63
2022-10-28T09:31:18.840Z,78998.59
2022-10-28T09:34:02.606Z,79005.22
2022-10-28T09:36:39.943Z,78977.59
2022-10-28T09:39:16.671Z,78996.97
2022-10-28T09:41:47.687Z,78993.19
2022-10-28T09:44:26.504Z,79003.28
2022-10-28T09:46:58.214Z,78966.31
2022-10-28T09:49:32.269Z,78998.25
2022-10-28T09:52:19.795Z,78989.09
2022-10-28T09:54:54.858Z,79002.88
2022-10-28T09:57:30.691Z,78991.69
2022-10-28T10:00:01.131Z,78968.78
2022-10-28T10:02:33.593Z,78994.97
2022-10-28T10:05:03.846Z,78989.81
2022-10-28T10:07:38.732Z,78984.97
2022-10-28T10:10:17.492Z,78992.16
2022-10-28T10:12:51.507Z,78986.81
2022-10-28T10:15:30.922Z,78994.19
2022-10-28T10:18:03.890Z,79000.06
2022-10-28T10:20:54.131Z,79005.22
2022-10-28T10:26:23.392Z,78986.69
2022-10-28T10:28:53.111Z,78981.47
2022-10-28T10:31:28.351Z,78989.66
2022-10-28T10:33:58.981Z,78994.06
2022-10-28T10:36:29.886Z,78998.06
2022-10-28T10:39:01.458Z,78977.97
2022-10-28T10:41:43.848Z,78992.53
2022-10-28T10:44:21.997Z,78988.13
2022-10-28T10:46:56.563Z,78990.91
2022-10-28T10:49:25.381Z,78983.13
2022-10-28T10:51:55.392Z,78989.09
2022-10-28T10:54:27.270Z,78974.25
2022-10-28T10:59:31.489Z,78983.69
2022-10-28T11:02:01.192Z,78982.16
2022-10-28T11:04:31.094Z,78984.88
2022-10-28T11:07:00.059Z,78972.25
2022-10-28T11:09:37.085Z,78993.81
2022-10-28T11:12:31.281Z,78994.13
2022-10-28T11:15:18.406Z,78996.81
2022-10-28T11:18:04.272Z,78992.94
2022-10-28T11:20:56.116Z,78996.44
2022-10-28T11:23:49.381Z,78996.94
2022-10-28T11:26:20.659Z,78984.19
2022-10-28T11:29:12.770Z,78999.75
2022-10-28T11:32:08.434Z,78995.78
2022-10-28T11:34:50.269Z,78993.91
2022-10-28T11:37:53.964Z,78993.66
2022-10-28T11:40:30.145Z,79006.31
2022-10-28T11:43:24.787Z,78995.44
2022-10-28T11:45:53.954Z,78997.28
2022-10-28T11:48:34.779Z,79005.03
2022-10-28T11:51:12.721Z,79006.78
2022-10-28T11:53:48.375Z,79000.63
2022-10-28T11:56:35.601Z,78999.69
2022-10-28T11:59:25.912Z,79002.75
2022-10-28T12:02:13.576Z,78986.38
2022-10-28T12:05:16.760Z,78997.38
2022-10-28T12:08:07.084Z,79008.81
2022-10-28T12:11:02.117Z,79009.91
2022-10-28T12:14:04.848Z,78993.38
2022-10-28T12:16:36.818Z,79016.84
2022-10-28T12:19:10.910Z,79005.88
2022-10-28T12:21:49.535Z,79001.69
2022-10-28T12:24:23.738Z,79012.44
2022-10-28T12:26:59.317Z,79012.03
2022-10-28T12:29:38.264Z,79018.38
2022-10-28T12:32:19.586Z,79000.66
2022-10-28T12:35:25.171Z,79020.00
2022-10-28T12:37:58.705Z,79024.97
2022-10-28T12:40:33.110Z,78985.59
2022-10-28T12:43:13.860Z,79031.28
2022-10-28T12:45:44.902Z,79012.97
2022-10-28T12:48:38.168Z,79014.59
2022-10-28T12:51:22.664Z,79027.69
2022-10-28T12:54:13.177Z,79029.00
2022-10-28T12:56:54.284Z,79025.13
2022-10-28T12:59:35.018Z,79030.34
2022-10-28T13:02:11.539Z,79000.91
2022-10-28T13:04:41.352Z,79022.13
2022-10-28T13:07:37.896Z,79027.28
2022-10-28T13:10:18.854Z,79030.00
2022-10-28T13:13:09.274Z,79045.97
2022-10-28T13:15:58.471Z,79048.06
2022-10-28T13:19:03.536Z,79046.97
2022-10-28T13:22:10.753Z,79053.53
2022-10-28T13:25:03.705Z,79058.66
2022-10-28T13:27:33.428Z,79059.88
2022-10-28T13:30:04.544Z,79029.63
2022-10-28T13:32:40.907Z,79071.16
2022-10-28T13:35:17.431Z,79049.63
2022-10-28T13:37:51.363Z,79066.47
2022-10-28T13:40:32.651Z,79083.91
2022-10-28T13:43:03.320Z,79063.44
2022-10-28T13:45:55.350Z,79079.47
2022-10-28T13:48:30.227Z,79080.25
2022-10-28T13:51:11.403Z,79090.41
2022-10-28T13:53:47.567Z,79083.81
2022-10-28T13:56:44.510Z,79085.28
2022-10-28T13:59:13.877Z,79093.19
2022-10-28T14:02:07.326Z,79094.44
2022-10-28T14:04:44.864Z,79087.66
2022-10-28T14:07:13.651Z,79098.31
2022-10-28T14:09:43.909Z,79095.69
2022-10-28T14:12:27.898Z,79104.72
2022-10-28T14:21:15.589Z,79093.56
2022-10-28T14:23:44.534Z,79104.25
2022-10-28T14:26:13.441Z,79096.38
2022-10-28T14:28:41.928Z,79108.25
2022-10-28T14:31:13.571Z,79111.53
2022-10-28T14:33:45.468Z,79115.50
2022-10-28T14:36:20.446Z,79108.34
2022-10-28T14:39:25.775Z,79113.81
2022-10-28T14:45:23.056Z,79116.47
2022-10-28T14:48:20.996Z,79088.34
2022-10-28T14:50:53.860Z,79114.00
2022-10-28T14:53:35.379Z,79120.09
2022-10-28T14:56:08.754Z,79095.09
2022-10-28T14:58:45.752Z,79120.25
2022-10-28T15:01:17.731Z,79122.22
2022-10-28T15:03:56.904Z,79126.25
2022-10-28T15:09:31.724Z,79127.03
2022-10-28T15:12:08.690Z,79122.94
2022-10-28T15:14:42.480Z,79122.91
2022-10-28T15:17:17.702Z,79112.59
2022-10-28T15:19:49.862Z,79128.50
2022-10-28T15:22:24.994Z,79093.31
2022-10-28T15:24:58.786Z,79116.34
2022-10-28T15:27:31.616Z,79115.72
2022-10-28T15:30:01.469Z,79135.03
2022-10-28T15:32:33.106Z,79120.78
2022-10-28T15:35:28.979Z,79130.72
2022-10-28T15:38:03.184Z,79097.97
2022-10-28T15:40:34.981Z,79090.81
2022-10-28T15:43:26.258Z,79122.69
2022-10-28T15:45:58.147Z,79142.47
2022-10-28T15:48:28.782Z,79141.19
2022-10-28T15:51:18.230Z,79141.25
2022-10-28T15:53:54.988Z,79135.38
2022-10-28T15:59:22.971Z,79139.38
2022-10-28T16:01:52.363Z,79125.03
2022-10-28T16:04:24.440Z,79140.84
2022-10-28T16:06:56.032Z,79105.88
2022-10-28T16:09:34.156Z,79134.63
2022-10-28T16:12:18.812Z,79103.72
2022-10-28T16:14:54.842Z,79141.53
2022-10-28T16:20:19.043Z,79146.06
2022-10-28T16:22:49.768Z,79130.22
2022-10-28T16:25:23.847Z,79133.53
2022-10-28T16:27:53.482Z,79142.41
2022-10-28T16:32:56.414Z,79094.53
2022-10-28T16:35:25.774Z,79131.59
2022-10-28T16:37:55.848Z,79072.94
2022-10-28T16:40:49.845Z,79115.19
2022-10-28T16:43:20.525Z,79128.38
2022-10-28T16:45:50.637Z,79140.97
2022-10-28T16:48:20.916Z,79121.13
2022-10-28T16:50:53.209Z,79143.97
2022-10-28T16:53:23.174Z,79147.94
2022-10-28T16:55:52.431Z,79149.38
2022-10-28T16:58:23.284Z,79132.97
2022-10-28T17:00:56.105Z,79128.44
2022-10-28T17:03:24.845Z,79125.88
2022-10-28T17:05:53.591Z,79137.09
2022-10-28T17:08:42.195Z,79117.22
2022-10-28T17:11:16.407Z,79132.00
2022-10-28T17:13:45.365Z,79106.25
2022-10-28T17:16:14.126Z,79137.44
2022-10-28T17:18:44.568Z,79145.59
2022-10-28T17:26:46.963Z,79141.41
2022-10-28T17:29:16.475Z,79146.31
2022-10-28T17:31:45.646Z,79115.38
2022-10-28T17:34:14.675Z,79138.88
2022-10-28T17:36:43.514Z,79133.50
2022-10-28T17:39:17.004Z,79141.59
2022-10-28T17:41:47.785Z,79144.81
2022-10-28T17:44:16.613Z,79134.44
2022-10-28T17:46:45.441Z,79129.72
2022-10-28T17:49:14.292Z,79117.91
2022-10-28T17:51:43.128Z,79135.50
2022-10-28T17:54:12.322Z,79146.25
2022-10-28T17:56:42.875Z,79118.63
2022-10-28T17:59:11.688Z,79152.41
2022-10-28T18:01:40.641Z,79151.88
2022-10-28T18:04:09.878Z,79139.22
2022-10-28T18:06:38.760Z,79105.84
2022-10-28T18:09:12.575Z,79128.34
2022-10-28T18:11:42.459Z,79142.09
2022-10-28T18:14:11.207Z,79134.22
2022-10-28T18:16:40.185Z,79123.41
2022-10-28T18:19:09.461Z,79135.31
2022-10-28T18:21:38.577Z,79118.78
2022-10-28T18:24:07.666Z,79112.09
2022-10-28T18:26:38.930Z,79106.88
2022-10-28T18:29:11.084Z,79128.53
2022-10-28T18:31:41.810Z,79115.44
2022-10-28T18:34:11.379Z,79081.91
2022-10-28T18:36:40.169Z,79120.50
2022-10-28T18:39:09.620Z,79111.84
2022-10-28T18:41:42.467Z,79107.25
2022-10-28T18:44:18.018Z,79124.38
2022-10-28T18:46:47.428Z,79099.22
2022-10-28T18:49:16.172Z,79107.25
2022-10-28T18:51:45.039Z,79103.47
2022-10-28T18:54:13.698Z,79080.59
2022-10-28T18:56:47.607Z,79085.97
2022-10-28T18:59:17.912Z,79107.81
2022-10-28T19:01:47.662Z,79110.28
2022-10-28T19:04:16.590Z,79099.75
2022-10-28T19:09:30.672Z,79106.63
2022-10-28T19:11:59.541Z,79087.19
2022-10-28T19:14:29.199Z,79113.34
2022-10-28T19:16:57.788Z,79117.44
2022-10-28T19:19:26.671Z,79109.50
2022-10-28T19:21:57.774Z,79105.06
2022-10-28T19:24:27.547Z,79101.75
2022-10-28T19:26:56.531Z,79099.72
2022-10-28T19:29:25.424Z,79116.78
2022-10-28T19:34:39.804Z,79083.31
2022-10-28T19:37:09.417Z,79077.38
2022-10-28T19:39:38.485Z,79080.06
2022-10-28T19:42:07.269Z,79100.53
2022-10-28T19:44:36.317Z,79073.56
2022-10-28T19:47:04.973Z,79104.53
2022-10-28T19:49:37.222Z,79092.06
2022-10-28T19:52:07.427Z,79108.00
2022-10-28T19:54:36.001Z,79091.47
2022-10-28T19:57:04.998Z,79088.69
2022-10-28T19:59:33.656Z,79086.38
2022-10-28T20:02:02.486Z,79098.41
2022-10-28T20:04:31.119Z,79099.59
2022-10-28T20:07:01.165Z,79096.22
2022-10-28T20:09:29.832Z,79081.53
2022-10-28T20:11:58.829Z,79074.44
2022-10-28T20:14:27.578Z,79085.13
2022-10-28T20:16:56.611Z,79074.63
2022-10-28T20:19:25.343Z,79074.09
2022-10-28T20:21:54.407Z,79056.44
2022-10-28T20:24:23.345Z,79058.91
2022-10-28T20:26:52.138Z,79079.53
2022-10-28T20:29:21.001Z,79073.16
2022-10-28T20:31:49.847Z,79067.94
2022-10-28T20:34:18.428Z,79046.25
2022-10-28T20:36:47.336Z,79072.06
2022-10-28T20:39:18.470Z,79073.41
2022-10-28T20:41:49.005Z,79079.31
2022-10-28T20:44:18.206Z,79060.91
2022-10-28T20:46:48.697Z,79059.81
2022-10-28T20:49:17.953Z,79069.75
2022-10-28T20:51:46.943Z,79057.28
2022-10-28T20:54:16.060Z,79055.28
2022-10-28T20:56:45.738Z,79054.72
2022-10-28T20:59:14.720Z,79056.75
2022-10-28T21:01:43.602Z,79009.97
2022-10-28T21:06:58.436Z,79051.19
2022-10-28T21:12:12.571Z,79057.28
2022-10-28T21:14:41.525Z,79042.88
2022-10-28T21:17:10.304Z,79040.00
2022-10-28T21:19:39.064Z,79050.66
2022-10-28T21:22:07.986Z,79034.84
2022-10-28T21:24:36.694Z,79057.78
2022-10-28T21:27:05.888Z,79052.53
2022-10-28T21:29:34.590Z,79037.41
2022-10-28T21:32:03.421Z,79031.44
2022-10-28T21:34:35.225Z,79046.41
2022-10-28T21:37:04.480Z,79025.91
2022-10-28T21:39:33.134Z,79039.09
2022-10-28T21:42:02.460Z,79038.31
2022-10-28T21:44:31.089Z,79041.06
2022-10-28T21:47:02.120Z,79041.69
2022-10-28T21:49:30.940Z,79032.34
2022-10-28T21:51:59.608Z,79028.41
2022-10-28T21:54:28.508Z,79025.78
2022-10-28T21:56:57.142Z,79034.16
2022-10-28T21:59:26.043Z,79008.09
2022-10-28T22:01:55.191Z,78967.88
2022-10-28T22:04:24.459Z,79036.22
2022-10-28T22:06:53.107Z,79009.13
2022-10-28T22:09:22.230Z,79031.91
2022-10-28T22:11:50.924Z,79010.03
2022-10-28T22:14:19.819Z,79022.72
2022-10-28T22:16:48.640Z,79004.31
2022-10-28T22:19:18.329Z,79004.97
2022-10-28T22:21:47.221Z,79016.44
2022-10-28T22:24:16.032Z,78985.56
2022-10-28T22:26:44.810Z,78996.69
2022-10-28T22:29:13.826Z,78914.97
2022-10-28T22:31:42.576Z,78989.19
2022-10-28T22:34:11.502Z,79018.56
2022-10-28T22:36:41.624Z,79001.53
2022-10-28T22:39:10.660Z,79013.03
2022-10-28T22:41:39.321Z,78996.16
2022-10-28T22:44:08.583Z,78993.41
2022-10-28T22:46:37.597Z,79009.28
2022-10-28T22:49:06.464Z,78996.16
2022-10-28T22:51:35.209Z,78980.47
2022-10-28T22:54:04.089Z,78997.69
2022-10-28T22:56:32.945Z,78983.94
2022-10-28T22:59:03.283Z,79014.13
2022-10-28T23:01:32.192Z,78992.22
2022-10-28T23:04:01.805Z,78995.72
2022-10-28T23:06:31.191Z,78958.59
2022-10-28T23:08:59.913Z,78988.84
2022-10-28T23:11:28.933Z,78991.16
2022-10-28T23:13:57.612Z,78993.81
2022-10-28T23:16:26.947Z,79002.72
2022-10-28T23:18:55.699Z,78989.72
2022-10-28T23:21:26.215Z,78990.06
2022-10-28T23:23:56.876Z,78981.53
2022-10-28T23:26:27.330Z,78974.91
2022-10-28T23:28:59.097Z,78991.13
2022-10-28T23:31:28.758Z,78987.16
2022-10-28T23:33:57.396Z,78963.66
2022-10-28T23:36:26.371Z,78991.53
2022-10-28T23:38:57.920Z,78987.13
2022-10-28T23:41:26.927Z,78992.34
2022-10-28T23:43:55.519Z,78992.94
2022-10-28T23:46:25.957Z,78979.22
2022-10-28T23:48:54.924Z,79002.31
2022-10-28T23:51:23.757Z,79005.66
2022-10-28T23:53:52.845Z,78987.59
2022-10-28T23:56:21.518Z,78998.97
2022-10-28T23:58:50.421Z,78966.72
